Disclaimer

Please do not use the information listed here in-flight or in-navigation, as they are not provided to us by the airports but are provided by volunteers, so they might be outdated.

Search


Regions


Airport information page

Radio informations:
Tower (TWR) - 119.7 MHz
SAL APP - 119.7 MHz
A/G - 3452 MHz

Airport informations:
Latitude: 16° 44' 29.00" N
Longitude: 022° 56' 58.00" W
Elevation: 177 feet - 54 meters
Operating hours: Remarks
Operating agency: Civil government, landing fees and diplomatic clearance may be required
Timezone: UTC-1
Fuel: Jet A1, without icing nhibitor.

100/130 MIL Spec, low lead, aviation gasoline (BLUE)

Runway information:
01/19 - 10735 x 148 feet< - >3272 x 45 meters
07/25 - 4921 x 148 feet< - >1500 x 45 meters

Recent METARs:
GVAC 130300Z 05013KT 9999 BKN015 23/15 Q1015 NOSIG
GVAC 130300Z 05013KT 9999 BKN015 23/15 Q1015 NOSIG
GVAC 130400Z 04015KT 9999 BKN015 23/15 Q1014 NOSIG

Airport on the map: